createdAt,value
2023-05-11T00:00:07.481Z,20.20
2023-05-11T00:02:33.953Z,20.70
2023-05-11T00:05:00.414Z,21.25
2023-05-11T00:07:26.924Z,20.70
2023-05-11T00:09:53.318Z,20.88
2023-05-11T00:12:19.681Z,21.33
2023-05-11T00:14:46.186Z,23.25
2023-05-11T00:17:12.545Z,22.65
2023-05-11T00:19:38.915Z,21.40
2023-05-11T00:22:05.340Z,23.92
2023-05-11T00:24:31.749Z,24.00
2023-05-11T00:26:58.065Z,23.17
2023-05-11T00:29:25.115Z,24.08
2023-05-11T00:31:51.624Z,23.55
2023-05-11T00:34:18.195Z,24.08
2023-05-11T00:36:45.386Z,23.98
2023-05-11T00:39:12.561Z,25.48
2023-05-11T00:41:39.188Z,23.67
2023-05-11T00:44:05.556Z,24.67
2023-05-11T00:46:31.910Z,26.27
2023-05-11T00:48:58.494Z,26.10
2023-05-11T00:51:24.856Z,25.90
2023-05-11T00:53:51.425Z,25.05
2023-05-11T00:56:17.965Z,26.63
2023-05-11T00:58:44.399Z,23.83
2023-05-11T01:01:11.246Z,26.80
2023-05-11T01:03:37.903Z,24.77
2023-05-11T01:06:15.944Z,27.98
2023-05-11T01:08:44.656Z,29.20
2023-05-11T01:11:28.029Z,26.92
2023-05-11T01:14:03.682Z,26.70
2023-05-11T01:16:32.127Z,25.83
2023-05-11T01:19:33.075Z,26.65
2023-05-11T01:21:59.981Z,27.65
2023-05-11T01:24:45.860Z,26.60
2023-05-11T01:27:38.102Z,28.70
2023-05-11T01:30:16.648Z,26.57
2023-05-11T01:32:44.429Z,26.45
2023-05-11T01:35:17.766Z,26.75
2023-05-11T01:37:47.972Z,27.30
2023-05-11T01:40:15.948Z,28.15
2023-05-11T01:42:47.619Z,29.13
2023-05-11T01:45:15.374Z,27.15
2023-05-11T01:47:42.159Z,27.00
2023-05-11T01:50:10.264Z,29.45
2023-05-11T01:52:38.691Z,29.15
2023-05-11T01:55:06.257Z,28.67
2023-05-11T01:57:33.369Z,28.33
2023-05-11T02:00:00.514Z,29.65
2023-05-11T02:02:27.276Z,27.33
2023-05-11T02:04:54.143Z,27.42
2023-05-11T02:07:21.341Z,27.73
2023-05-11T02:09:49.779Z,29.30
2023-05-11T02:12:17.989Z,29.83
2023-05-11T02:14:45.771Z,28.30
2023-05-11T02:17:12.806Z,28.52
2023-05-11T02:19:39.345Z,28.67
2023-05-11T02:22:06.420Z,28.17
2023-05-11T02:24:33.374Z,28.67
2023-05-11T02:26:59.986Z,30.00
2023-05-11T02:29:27.102Z,27.63
2023-05-11T02:31:57.011Z,27.17
2023-05-11T02:34:25.485Z,29.25
2023-05-11T02:36:53.881Z,31.15
2023-05-11T02:39:22.851Z,31.67
2023-05-11T02:41:53.910Z,30.48
2023-05-11T02:44:21.560Z,29.77
2023-05-11T02:46:49.011Z,29.05
2023-05-11T02:49:16.389Z,31.55
2023-05-11T02:51:43.844Z,29.38
2023-05-11T02:54:10.773Z,31.02
2023-05-11T02:56:41.497Z,31.13
2023-05-11T02:59:08.820Z,32.42
2023-05-11T03:01:35.653Z,34.40
2023-05-11T03:04:05.208Z,36.42
2023-05-11T03:06:33.197Z,31.85
2023-05-11T03:09:01.286Z,33.60
2023-05-11T03:11:28.044Z,32.85
2023-05-11T03:13:54.507Z,33.38
2023-05-11T03:16:21.581Z,30.48
2023-05-11T03:18:49.241Z,31.63
2023-05-11T03:21:19.865Z,31.52
2023-05-11T03:23:46.430Z,31.08
2023-05-11T03:26:16.677Z,31.90
2023-05-11T03:28:44.335Z,31.15
2023-05-11T03:31:10.923Z,29.88
2023-05-11T03:33:37.581Z,32.03
2023-05-11T03:36:06.677Z,31.20
2023-05-11T03:38:35.078Z,30.33
2023-05-11T03:41:02.008Z,32.60
2023-05-11T03:43:32.544Z,30.92
2023-05-11T03:46:00.438Z,33.72
2023-05-11T03:48:27.911Z,32.70
2023-05-11T03:50:54.500Z,33.33
2023-05-11T03:53:21.158Z,33.17
2023-05-11T03:55:49.994Z,36.30
2023-05-11T03:58:16.507Z,34.10
2023-05-11T04:00:43.951Z,33.35
2023-05-11T04:03:10.483Z,32.70
2023-05-11T04:05:38.300Z,33.20
2023-05-11T04:08:08.154Z,33.20
2023-05-11T04:10:34.998Z,34.15
2023-05-11T04:13:01.311Z,32.25
2023-05-11T04:15:28.613Z,30.77
2023-05-11T04:17:54.964Z,32.85
2023-05-11T04:20:21.425Z,30.98
2023-05-11T04:22:47.943Z,31.20
2023-05-11T04:25:14.636Z,30.80
2023-05-11T04:27:41.110Z,29.58
2023-05-11T04:30:07.786Z,32.17
2023-05-11T04:32:34.412Z,29.45
2023-05-11T04:35:00.912Z,29.63
2023-05-11T04:37:30.470Z,31.23
2023-05-11T04:39:57.652Z,30.15
2023-05-11T04:42:24.051Z,29.75
2023-05-11T04:44:53.644Z,30.80
2023-05-11T04:47:20.367Z,31.77
2023-05-11T04:49:47.251Z,30.15
2023-05-11T04:52:14.255Z,31.25
2023-05-11T04:54:43.591Z,29.50
2023-05-11T04:57:10.160Z,29.85
2023-05-11T04:59:36.671Z,29.48
2023-05-11T05:02:03.059Z,29.48
2023-05-11T05:04:29.394Z,29.75
2023-05-11T05:06:55.774Z,31.92
2023-05-11T05:09:22.231Z,28.88
2023-05-11T05:11:48.909Z,29.38
2023-05-11T05:14:15.283Z,28.77
2023-05-11T05:16:41.714Z,26.60
2023-05-11T05:19:09.884Z,26.88
2023-05-11T05:21:36.572Z,26.95
2023-05-11T05:24:06.829Z,27.90
2023-05-11T05:26:33.276Z,25.25
2023-05-11T05:29:00.111Z,24.48
2023-05-11T05:31:26.699Z,24.08
2023-05-11T05:33:53.115Z,24.67
2023-05-11T05:36:20.761Z,21.17
2023-05-11T05:38:47.658Z,19.20
2023-05-11T05:41:14.150Z,19.15
2023-05-11T05:43:43.059Z,19.65
2023-05-11T05:46:09.614Z,19.63
2023-05-11T05:48:36.159Z,20.13
2023-05-11T05:51:02.790Z,18.83
2023-05-11T05:53:29.130Z,19.10
2023-05-11T05:55:55.554Z,18.45
2023-05-11T05:58:21.886Z,17.25
2023-05-11T06:00:49.126Z,17.30
2023-05-11T06:03:15.660Z,16.83
2023-05-11T06:05:42.167Z,16.15
2023-05-11T06:08:11.178Z,15.52
2023-05-11T06:10:38.987Z,13.18
2023-05-11T06:13:05.963Z,10.55
2023-05-11T06:15:32.614Z,10.43
2023-05-11T06:18:07.036Z,12.13
2023-05-11T06:20:33.848Z,12.13
2023-05-11T06:23:00.869Z,11.40
2023-05-11T06:25:27.804Z,11.25
2023-05-11T06:27:54.372Z,10.18
2023-05-11T06:30:20.965Z,10.88
2023-05-11T06:32:49.800Z,10.52
2023-05-11T06:35:18.773Z,11.38
2023-05-11T06:37:45.844Z,11.55
2023-05-11T06:40:13.365Z,11.45
2023-05-11T06:42:39.814Z,12.52
2023-05-11T06:45:09.893Z,13.75
2023-05-11T06:47:36.728Z,13.40
2023-05-11T06:50:04.082Z,14.20
2023-05-11T06:52:30.456Z,16.15
2023-05-11T06:54:59.367Z,16.95
2023-05-11T06:57:25.738Z,17.05
2023-05-11T06:59:52.097Z,17.45
2023-05-11T07:02:18.460Z,18.23
2023-05-11T07:04:44.878Z,21.55
2023-05-11T07:07:12.255Z,20.92
2023-05-11T07:09:39.493Z,23.02
2023-05-11T07:12:08.661Z,21.95
2023-05-11T07:14:34.999Z,23.17
2023-05-11T07:17:01.536Z,22.42
2023-05-11T07:19:27.943Z,22.13
2023-05-11T07:21:54.381Z,23.40
2023-05-11T07:24:20.772Z,22.73
2023-05-11T07:26:47.267Z,22.50
2023-05-11T07:29:13.546Z,23.63
2023-05-11T07:31:39.913Z,23.40
2023-05-11T07:34:06.437Z,23.20
2023-05-11T07:36:33.031Z,23.40
2023-05-11T07:39:01.189Z,23.67
2023-05-11T07:41:27.882Z,22.33
2023-05-11T07:43:54.622Z,21.83
2023-05-11T07:46:21.170Z,23.17
2023-05-11T07:48:47.668Z,22.02
2023-05-11T07:51:14.053Z,22.40
2023-05-11T07:53:40.706Z,23.25
2023-05-11T07:56:07.253Z,22.48
2023-05-11T07:58:33.649Z,23.00
2023-05-11T08:01:00.015Z,22.50
2023-05-11T08:03:26.653Z,22.60
2023-05-11T08:05:53.130Z,22.83
2023-05-11T08:08:19.712Z,23.15
2023-05-11T08:10:46.052Z,21.98
2023-05-11T08:13:12.396Z,22.05
2023-05-11T08:15:38.987Z,21.92
2023-05-11T08:18:06.323Z,22.88
2023-05-11T08:20:32.733Z,21.98
2023-05-11T08:22:59.406Z,22.85
2023-05-11T08:25:25.940Z,24.65
2023-05-11T08:27:52.283Z,24.05
2023-05-11T08:30:20.235Z,23.75
2023-05-11T08:32:57.819Z,22.77
2023-05-11T08:35:24.798Z,21.85
2023-05-11T08:37:51.184Z,19.02
2023-05-11T08:40:17.713Z,19.55
2023-05-11T08:42:46.681Z,18.30
2023-05-11T08:45:13.344Z,17.48
2023-05-11T08:47:39.825Z,16.92
2023-05-11T08:50:06.686Z,17.65
2023-05-11T08:52:33.056Z,18.25
2023-05-11T08:54:59.449Z,17.42
2023-05-11T08:57:27.148Z,17.88
2023-05-11T08:59:53.626Z,19.88
2023-05-11T09:02:20.060Z,19.45
2023-05-11T09:04:48.589Z,17.63
2023-05-11T09:07:17.307Z,19.40
2023-05-11T09:09:43.897Z,19.60
2023-05-11T09:12:10.328Z,17.52
2023-05-11T09:14:36.979Z,18.98
2023-05-11T09:17:04.246Z,19.55
2023-05-11T09:19:31.204Z,18.17
2023-05-11T09:21:59.156Z,18.95
2023-05-11T09:24:25.826Z,18.15
2023-05-11T09:27:05.934Z,18.45
2023-05-11T09:29:32.318Z,20.70
2023-05-11T09:31:58.671Z,20.05
2023-05-11T09:34:25.114Z,20.25
2023-05-11T09:36:52.414Z,20.02
2023-05-11T09:39:35.416Z,19.05
2023-05-11T09:42:18.849Z,19.40
2023-05-11T09:44:46.078Z,19.33
2023-05-11T09:47:13.857Z,19.65
2023-05-11T09:49:43.492Z,21.15
2023-05-11T09:52:10.724Z,20.67
2023-05-11T09:54:46.942Z,21.27
2023-05-11T09:57:22.397Z,24.17
2023-05-11T09:59:48.833Z,23.05
2023-05-11T10:02:22.583Z,22.13
2023-05-11T10:04:52.687Z,22.50
2023-05-11T10:07:25.527Z,22.95
2023-05-11T10:09:53.325Z,21.80
2023-05-11T10:12:21.215Z,22.50
2023-05-11T10:14:49.233Z,21.20
2023-05-11T10:17:16.030Z,22.42
2023-05-11T10:19:42.681Z,20.58
2023-05-11T10:22:09.683Z,21.08
2023-05-11T10:24:36.728Z,22.33
2023-05-11T10:27:03.738Z,18.60
2023-05-11T10:29:30.847Z,18.77
2023-05-11T10:31:58.090Z,16.33
2023-05-11T10:34:24.537Z,12.57
2023-05-11T10:36:52.055Z,14.15
2023-05-11T10:39:18.439Z,13.25
2023-05-11T10:41:44.840Z,13.10
2023-05-11T10:44:32.978Z,14.35
2023-05-11T10:47:08.632Z,15.40
2023-05-11T10:49:46.794Z,14.45
2023-05-11T10:52:21.738Z,15.52
2023-05-11T10:54:54.446Z,15.57
2023-05-11T10:57:33.931Z,16.45
2023-05-11T11:00:08.951Z,16.13
2023-05-11T11:02:36.104Z,16.17
2023-05-11T11:05:05.830Z,14.40
2023-05-11T11:07:32.320Z,14.48
2023-05-11T11:10:09.114Z,15.05
2023-05-11T11:12:35.527Z,14.77
2023-05-11T11:15:03.723Z,15.82
2023-05-11T11:17:32.117Z,16.13
2023-05-11T11:20:00.971Z,17.15
2023-05-11T11:22:36.863Z,15.68
2023-05-11T11:25:06.572Z,20.33
2023-05-11T11:27:45.124Z,19.98
2023-05-11T11:30:18.634Z,17.35
2023-05-11T11:32:46.306Z,21.17
2023-05-11T11:35:31.747Z,19.38
2023-05-11T11:38:02.443Z,21.02
2023-05-11T11:40:46.992Z,17.52
2023-05-11T11:43:19.690Z,17.02
2023-05-11T11:46:02.021Z,16.60
2023-05-11T11:48:31.749Z,18.17
2023-05-11T11:51:18.550Z,16.88
2023-05-11T11:53:51.133Z,15.15
2023-05-11T11:56:17.535Z,17.20
2023-05-11T11:58:46.682Z,15.13
2023-05-11T12:01:14.255Z,15.23
2023-05-11T12:03:41.944Z,15.30
2023-05-11T12:06:09.512Z,17.27
2023-05-11T12:08:36.432Z,15.77
2023-05-11T12:11:03.569Z,17.67
2023-05-11T12:13:30.375Z,16.30
2023-05-11T12:16:17.251Z,17.08
2023-05-11T12:18:51.983Z,18.08
2023-05-11T12:21:21.608Z,17.55
2023-05-11T12:23:57.660Z,17.52
2023-05-11T12:26:24.726Z,17.20
2023-05-11T12:28:51.540Z,16.88
2023-05-11T12:31:18.564Z,16.45
2023-05-11T12:33:53.922Z,14.65
2023-05-11T12:36:20.299Z,10.30
2023-05-11T12:38:47.717Z,9.73
2023-05-11T12:41:22.419Z,10.52
2023-05-11T12:43:52.244Z,10.57
2023-05-11T12:46:19.262Z,10.45
2023-05-11T12:48:46.326Z,9.32
2023-05-11T12:51:12.806Z,8.82
2023-05-11T12:53:39.678Z,7.30
2023-05-11T12:56:06.231Z,8.25
2023-05-11T12:58:39.769Z,8.98
2023-05-11T13:01:06.889Z,4.78
2023-05-11T13:03:35.293Z,3.95
2023-05-11T13:06:08.991Z,1.92
2023-05-11T13:08:39.001Z,1.70
2023-05-11T13:11:25.419Z,1.70
2023-05-11T13:13:52.861Z,1.88
2023-05-11T13:16:32.001Z,1.75
2023-05-11T13:19:03.190Z,1.77
2023-05-11T13:21:30.331Z,1.80
2023-05-11T13:23:56.658Z,1.77
2023-05-11T13:26:24.321Z,2.10
2023-05-11T13:29:05.804Z,1.95
2023-05-11T13:31:42.396Z,2.33
2023-05-11T13:36:35.081Z,2.80
2023-05-11T13:39:01.470Z,2.75
2023-05-11T13:41:27.845Z,3.10
2023-05-11T13:43:54.210Z,2.65
2023-05-11T13:46:20.768Z,2.45
2023-05-11T13:48:47.192Z,2.70
2023-05-11T13:51:13.596Z,3.22
2023-05-11T13:53:39.949Z,2.90
2023-05-11T13:56:06.769Z,3.08
2023-05-11T13:58:33.212Z,2.90
2023-05-11T14:01:07.572Z,2.88
2023-05-11T14:03:34.986Z,3.08
2023-05-11T14:06:01.383Z,2.78
2023-05-11T14:08:27.715Z,2.47
2023-05-11T14:10:54.075Z,2.50
2023-05-11T14:13:20.665Z,2.40
2023-05-11T14:15:49.153Z,2.97
2023-05-11T14:18:15.669Z,3.30
2023-05-11T14:20:42.448Z,3.40
2023-05-11T14:23:08.866Z,3.80
2023-05-11T14:25:36.192Z,3.83
2023-05-11T14:28:02.643Z,4.35
2023-05-11T14:30:29.058Z,4.45
2023-05-11T14:32:55.850Z,4.00
2023-05-11T14:35:22.333Z,4.18
2023-05-11T14:37:48.972Z,4.18
2023-05-11T14:40:15.312Z,4.07
2023-05-11T14:42:41.795Z,4.00
2023-05-11T14:45:08.448Z,3.60
2023-05-11T14:47:35.387Z,3.63
2023-05-11T14:50:01.894Z,3.08
2023-05-11T14:52:28.270Z,3.40
2023-05-11T14:54:54.750Z,4.43
2023-05-11T14:57:21.116Z,4.90
2023-05-11T14:59:58.397Z,5.40
2023-05-11T15:02:26.058Z,4.93
2023-05-11T15:04:52.676Z,5.63
2023-05-11T15:07:19.081Z,5.70
2023-05-11T15:09:45.418Z,5.70
2023-05-11T15:12:11.821Z,5.40
2023-05-11T15:14:38.473Z,4.88
2023-05-11T15:17:04.955Z,4.70
2023-05-11T15:19:31.301Z,4.28
2023-05-11T15:21:57.809Z,4.20
2023-05-11T15:24:24.285Z,3.15
2023-05-11T15:26:50.766Z,2.58
2023-05-11T15:29:17.108Z,2.63
2023-05-11T15:31:43.554Z,2.28
2023-05-11T15:34:09.985Z,2.38
2023-05-11T15:36:36.373Z,2.47
2023-05-11T15:39:02.787Z,3.05
2023-05-11T15:41:29.223Z,3.28
2023-05-11T15:43:55.634Z,3.33
2023-05-11T15:46:22.493Z,9.32
2023-05-11T15:48:49.120Z,15.85
2023-05-11T15:51:15.625Z,12.02
2023-05-11T15:53:42.108Z,6.05
2023-05-11T15:56:09.107Z,3.88
2023-05-11T15:58:35.541Z,2.72
2023-05-11T16:01:02.089Z,3.15
2023-05-11T16:03:28.746Z,2.65
2023-05-11T16:05:55.580Z,3.67
2023-05-11T16:08:21.934Z,3.65
2023-05-11T16:10:48.296Z,2.40
2023-05-11T16:13:14.709Z,4.35
2023-05-11T16:15:41.003Z,8.32
2023-05-11T16:18:07.655Z,5.45
2023-05-11T16:20:34.197Z,3.92
2023-05-11T16:23:00.739Z,2.75
2023-05-11T16:25:27.171Z,3.85
2023-05-11T16:27:53.509Z,3.80
2023-05-11T16:30:24.861Z,2.83
2023-05-11T16:32:52.329Z,3.28
2023-05-11T16:35:18.855Z,3.22
2023-05-11T16:37:46.576Z,3.13
2023-05-11T16:40:12.985Z,3.47
2023-05-11T16:42:39.333Z,3.53
2023-05-11T16:45:06.327Z,3.95
2023-05-11T16:47:32.732Z,4.13
2023-05-11T16:49:59.174Z,4.57
2023-05-11T16:52:25.832Z,4.10
2023-05-11T16:54:52.515Z,3.95
2023-05-11T16:57:18.879Z,3.85
2023-05-11T16:59:45.255Z,4.07
2023-05-11T17:02:11.969Z,4.35
2023-05-11T17:04:38.520Z,3.75
2023-05-11T17:07:04.875Z,3.30
2023-05-11T17:09:31.236Z,4.30
2023-05-11T17:11:57.576Z,3.40
2023-05-11T17:14:23.951Z,2.83
2023-05-11T17:16:50.958Z,2.95
2023-05-11T17:19:17.908Z,3.22
2023-05-11T17:21:44.620Z,3.53
2023-05-11T17:24:10.984Z,4.05
2023-05-11T17:26:47.265Z,3.90
2023-05-11T17:29:15.563Z,5.68
2023-05-11T17:31:42.398Z,5.40
2023-05-11T17:34:09.239Z,6.47
2023-05-11T17:36:35.976Z,5.00
2023-05-11T17:39:02.435Z,4.97
2023-05-11T17:41:28.808Z,5.40
2023-05-11T17:43:55.245Z,4.63
2023-05-11T17:46:21.741Z,4.22
2023-05-11T17:48:48.555Z,4.10
2023-05-11T17:51:14.998Z,4.60
2023-05-11T17:53:41.830Z,4.07
2023-05-11T17:56:09.875Z,3.80
2023-05-11T17:58:36.229Z,4.88
2023-05-11T18:01:09.434Z,4.15
2023-05-11T18:03:35.963Z,4.20
2023-05-11T18:06:02.617Z,3.85
2023-05-11T18:08:29.062Z,4.18
2023-05-11T18:10:55.609Z,4.03
2023-05-11T18:13:25.114Z,4.70
2023-05-11T18:15:53.598Z,3.85
2023-05-11T18:18:20.155Z,3.63
2023-05-11T18:20:46.658Z,3.30
2023-05-11T18:23:13.796Z,3.67
2023-05-11T18:25:40.245Z,4.28
2023-05-11T18:28:06.743Z,4.50
2023-05-11T18:30:33.675Z,4.63
2023-05-11T18:33:00.456Z,4.22
2023-05-11T18:35:26.968Z,5.07
2023-05-11T18:37:53.602Z,5.75
2023-05-11T18:40:20.292Z,5.97
2023-05-11T18:42:47.176Z,6.03
2023-05-11T18:45:13.875Z,5.05
2023-05-11T18:47:44.295Z,5.50
2023-05-11T18:50:11.175Z,5.18
2023-05-11T18:52:37.690Z,5.13
2023-05-11T18:55:04.259Z,5.78
2023-05-11T18:57:32.467Z,6.05
2023-05-11T18:59:58.870Z,6.00
2023-05-11T19:02:25.315Z,5.97
2023-05-11T19:04:51.686Z,6.00
2023-05-11T19:07:20.256Z,6.55
2023-05-11T19:09:46.993Z,6.35
2023-05-11T19:12:13.410Z,6.90
2023-05-11T19:14:41.108Z,6.50
2023-05-11T19:17:07.498Z,6.95
2023-05-11T19:19:34.202Z,7.05
2023-05-11T19:22:00.640Z,7.72
2023-05-11T19:24:27.497Z,9.20
2023-05-11T19:27:05.993Z,8.48
2023-05-11T19:29:42.120Z,8.07
2023-05-11T19:32:08.581Z,7.68
2023-05-11T19:34:36.133Z,8.30
2023-05-11T19:37:02.757Z,7.90
2023-05-11T19:39:31.422Z,8.60
2023-05-11T19:41:57.946Z,8.77
2023-05-11T19:44:24.507Z,9.32
2023-05-11T19:46:52.907Z,8.77
2023-05-11T19:49:19.227Z,9.48
2023-05-11T19:51:45.955Z,9.10
2023-05-11T19:54:12.357Z,9.07
2023-05-11T19:56:40.385Z,10.70
2023-05-11T19:59:06.754Z,10.07
2023-05-11T20:01:34.174Z,10.70
2023-05-11T20:04:01.099Z,11.43
2023-05-11T20:06:28.003Z,9.50
2023-05-11T20:08:56.670Z,9.65
2023-05-11T20:11:23.128Z,10.68
2023-05-11T20:13:49.553Z,10.30
2023-05-11T20:16:16.032Z,11.02
2023-05-11T20:18:42.465Z,11.30
2023-05-11T20:21:08.855Z,10.43
2023-05-11T20:23:37.256Z,11.15
2023-05-11T20:26:04.645Z,10.35
2023-05-11T20:28:31.874Z,12.20
2023-05-11T20:30:58.291Z,12.32
2023-05-11T20:35:54.235Z,9.18
2023-05-11T20:38:20.688Z,9.93
2023-05-11T20:40:47.157Z,9.10
2023-05-11T20:43:14.791Z,9.30
2023-05-11T20:45:44.008Z,9.65
2023-05-11T20:48:10.897Z,9.35
2023-05-11T20:50:39.191Z,9.77
2023-05-11T20:53:08.227Z,10.38
2023-05-11T20:55:34.743Z,12.00
2023-05-11T20:58:04.258Z,11.95
2023-05-11T21:00:34.806Z,12.82
2023-05-11T21:03:01.360Z,13.18
2023-05-11T21:05:27.811Z,13.95
2023-05-11T21:07:54.200Z,13.63
2023-05-11T21:10:20.938Z,13.50
2023-05-11T21:12:47.545Z,12.70
2023-05-11T21:15:13.934Z,12.05
2023-05-11T21:17:42.430Z,14.52
2023-05-11T21:20:09.198Z,13.00
2023-05-11T21:22:36.454Z,8.07
2023-05-11T21:25:03.765Z,9.32
2023-05-11T21:27:30.486Z,8.20
2023-05-11T21:29:56.988Z,8.20
2023-05-11T21:32:23.945Z,7.43
2023-05-11T21:34:50.414Z,8.63
2023-05-11T21:37:20.395Z,10.25
2023-05-11T21:39:51.707Z,8.85
2023-05-11T21:42:18.388Z,9.70
2023-05-11T21:44:44.745Z,9.95
2023-05-11T21:47:11.059Z,11.05
2023-05-11T21:49:37.499Z,11.15
2023-05-11T21:52:05.757Z,10.75
2023-05-11T21:54:32.164Z,10.65
2023-05-11T21:56:58.506Z,12.25
2023-05-11T21:59:27.708Z,12.02
2023-05-11T22:01:56.747Z,11.40
2023-05-11T22:04:24.629Z,12.40
2023-05-11T22:06:50.973Z,11.55
2023-05-11T22:09:17.475Z,11.52
2023-05-11T22:11:44.206Z,11.15
2023-05-11T22:14:10.632Z,11.90
2023-05-11T22:16:37.117Z,12.05
2023-05-11T22:19:04.029Z,11.50
2023-05-11T22:21:30.540Z,10.40
2023-05-11T22:23:56.933Z,11.48
2023-05-11T22:26:26.842Z,12.10
2023-05-11T22:28:53.244Z,11.43
2023-05-11T22:31:19.617Z,11.00
2023-05-11T22:33:46.032Z,10.32
2023-05-11T22:36:12.359Z,10.00
2023-05-11T22:38:41.433Z,9.93
2023-05-11T22:41:07.987Z,10.38
2023-05-11T22:43:36.038Z,9.30
2023-05-11T22:46:03.449Z,7.82
2023-05-11T22:48:29.837Z,7.05
2023-05-11T22:50:56.153Z,7.10
2023-05-11T22:53:23.165Z,8.00
2023-05-11T22:55:49.571Z,7.25
2023-05-11T22:58:16.040Z,6.82
2023-05-11T23:00:42.464Z,6.70
2023-05-11T23:03:09.001Z,7.63
2023-05-11T23:05:35.462Z,5.70
2023-05-11T23:08:01.973Z,5.63
2023-05-11T23:10:28.645Z,7.00
2023-05-11T23:12:55.516Z,6.68
2023-05-11T23:15:21.864Z,6.35
2023-05-11T23:17:48.356Z,7.75
2023-05-11T23:20:14.862Z,7.25
2023-05-11T23:22:41.683Z,8.27
2023-05-11T23:25:08.348Z,7.97
2023-05-11T23:27:34.796Z,8.77
2023-05-11T23:30:01.121Z,7.72
2023-05-11T23:32:27.828Z,8.07
2023-05-11T23:34:54.287Z,7.95
2023-05-11T23:37:21.830Z,6.72
2023-05-11T23:39:48.208Z,8.60
2023-05-11T23:42:14.824Z,10.30
2023-05-11T23:44:41.232Z,8.80
2023-05-11T23:47:07.681Z,9.45
2023-05-11T23:49:34.021Z,9.20
2023-05-11T23:52:00.658Z,9.45
2023-05-11T23:54:27.043Z,7.90
2023-05-11T23:56:53.426Z,9.73
2023-05-11T23:59:19.740Z,9.55
